Laurel Fork, Virginia
Current Conditions -  °F | °C
As of 11:55 PM on Saturday 22 Nov 2014 (Local Time) from KHLX Reporting Station
Clear Clear  
Wind Chill: 33°   Ceiling: Unl
Heat Index: 38°   Visibility: 10mi
Dew Point: 17°   Wind: 8mph
Humidity: 43%   Direction: 190°S
Pressure: 30.25"   Gusts: NA
Location:  36.72°N, 80.52°W
Report Text: KHLX 230455Z AUTO 19007KT 10SM CLR 04/M08 A3025 RMK AO2 T00361081 400931029
Loading
Personal Weather Stations






























Interactive Weather Map New forecast layout! Learn more

10-Day Weather Forecast

Advertisements
Track Severe Weather on mobile